Time;durP1;ratioP1;P1;durP2;ratioP2;P2;SDS_P1;SDS_P2;PMS_P1;PMS_P2;Temp;Humidity;BMP_temperature;BMP_pressure;BME280_temperature;BME280_humidity;BME280_pressure;Samples;Min_cycle;Max_cycle;Signal;HPM_P1;HPM_P2
2022/12/16 00:00:35;;;;;;;;;20.50;13.75;;;;;0.98;100.00;100267.19;6252685;22;45211;-85
2022/12/16 00:03:01;;;;;;;;;51.75;45.25;;;;;0.86;100.00;100267.50;6252492;22;46761;-85
2022/12/16 00:06:16;;;;;;;;;50.25;45.00;;;;;0.88;100.00;100276.31;6253203;22;45523;-85
2022/12/16 00:08:42;;;;;;;;;48.25;45.25;;;;;0.85;100.00;100267.44;6254689;22;44827;-84
2022/12/16 00:11:09;;;;;;;;;41.50;39.75;;;;;0.82;100.00;100270.81;6256342;22;45344;-86
2022/12/16 00:13:36;;;;;;;;;51.75;43.75;;;;;0.79;100.00;100278.56;6255475;22;47392;-85
2022/12/16 00:16:08;;;;;;;;;52.00;46.00;;;;;0.83;100.00;100288.34;6253721;22;44734;-84
2022/12/16 00:18:34;;;;;;;;;58.75;47.00;;;;;0.82;100.00;100294.38;6254626;22;45384;-84
2022/12/16 00:21:00;;;;;;;;;49.50;45.75;;;;;0.80;100.00;100290.78;6252148;22;45405;-86
2022/12/16 00:23:27;;;;;;;;;52.50;46.50;;;;;0.77;100.00;100293.28;6252084;22;46828;-84
2022/12/16 00:25:54;;;;;;;;;52.50;47.25;;;;;0.79;100.00;100294.25;6254728;22;45239;-85
2022/12/16 00:28:22;;;;;;;;;47.00;44.50;;;;;0.76;100.00;100296.72;6253510;22;45216;-85
2022/12/16 00:30:49;;;;;;;;;48.75;42.25;;;;;0.63;100.00;100268.19;6254888;22;45549;-84
2022/12/16 00:33:16;;;;;;;;;52.75;46.25;;;;;0.62;100.00;100261.16;6253886;22;45491;-83
2022/12/16 00:35:42;;;;;;;;;51.25;45.50;;;;;0.60;100.00;100266.31;6253412;22;45199;-84
2022/12/16 00:38:08;;;;;;;;;53.75;43.50;;;;;0.76;100.00;100296.72;6252296;22;44757;-83
2022/12/16 00:40:33;;;;;;;;;50.50;42.50;;;;;0.59;100.00;100265.44;6254797;22;45212;-84
2022/12/16 00:42:59;;;;;;;;;44.25;42.50;;;;;0.71;100.00;100295.63;6253693;22;47409;-85
2022/12/16 00:45:24;;;;;;;;;51.25;45.75;;;;;0.66;100.00;100284.03;6252905;22;45781;-84
2022/12/16 00:47:50;;;;;;;;;56.25;47.00;;;;;0.71;100.00;100296.50;6253638;22;44953;-84
2022/12/16 00:50:21;;;;;;;;;47.75;40.00;;;;;0.71;100.00;100298.25;6255092;22;45383;-85
2022/12/16 00:52:47;;;;;;;;;52.75;45.25;;;;;0.70;100.00;100302.56;6252792;22;47507;-85
2022/12/16 00:55:14;;;;;;;;;56.25;46.00;;;;;0.70;100.00;100305.16;6254488;22;45153;-85
2022/12/16 00:57:40;;;;;;;;;63.25;49.75;;;;;0.66;100.00;100303.25;6252559;22;45298;-85
2022/12/16 01:00:11;;;;;;;;;55.00;47.25;;;;;0.72;100.00;100318.34;6255065;22;45472;-85
2022/12/16 01:02:36;;;;;;;;;48.75;45.25;;;;;0.71;100.00;100306.97;6251122;22;47382;-84
2022/12/16 01:05:02;;;;;;;;;47.00;42.50;;;;;0.76;100.00;100333.34;6255310;22;45341;-85
2022/12/16 01:07:27;;;;;;;;;48.25;45.50;;;;;0.71;100.00;100311.31;6255133;22;45369;-85
2022/12/16 01:09:53;;;;;;;;;50.00;42.50;;;;;0.74;100.00;100324.53;6252726;22;45492;-84
2022/12/16 01:12:18;;;;;;;;;56.50;50.50;;;;;0.62;100.00;100316.13;6252942;22;46974;-85
2022/12/16 01:14:44;;;;;;;;;52.50;47.75;;;;;0.71;100.00;100332.25;6253549;22;45091;-84
2022/12/16 01:17:11;;;;;;;;;7.25;2.50;;;;;0.74;100.00;100335.00;6255191;22;44782;-84
2022/12/16 01:19:36;;;;;;;;;47.00;44.00;;;;;0.73;100.00;100333.22;6253270;22;45390;-84
2022/12/16 01:22:02;;;;;;;;;52.25;46.50;;;;;0.74;100.00;100346.38;6253565;22;46482;-85
2022/12/16 01:24:28;;;;;;;;;57.75;50.00;;;;;0.72;100.00;100340.16;6253395;22;45426;-84
2022/12/16 01:26:53;;;;;;;;;43.25;42.25;;;;;0.68;100.00;100334.72;6251623;22;45343;-85
2022/12/16 01:29:19;;;;;;;;;46.50;43.25;;;;;0.73;100.00;100348.94;6252801;22;44839;-85
2022/12/16 01:31:44;;;;;;;;;47.25;43.50;;;;;0.73;100.00;100356.78;6252540;22;47246;-86
2022/12/16 01:34:09;;;;;;;;;49.75;43.50;;;;;0.66;100.00;100354.69;6274220;22;45650;-86
2022/12/16 01:36:35;;;;;;;;;44.75;42.75;;;;;0.64;100.00;100356.34;6252117;22;45286;-87
2022/12/16 01:39:01;;;;;;;;;45.75;43.00;;;;;0.64;100.00;100369.41;6252921;22;45407;-86
2022/12/16 01:41:27;;;;;;;;;50.00;45.25;;;;;0.58;100.00;100384.00;6252963;22;48294;-86
2022/12/16 01:44:13;;;;;;;;;60.50;49.00;;;;;0.50;100.00;100379.22;6251076;22;45394;-85
2022/12/16 01:46:49;;;;;;;;;51.00;43.25;;;;;0.41;100.00;100361.38;6255874;22;44829;-86
2022/12/16 01:49:41;;;;;;;;;51.00;43.75;;;;;0.46;100.00;100378.16;6256399;22;45669;-85
2022/12/16 01:52:13;;;;;;;;;58.50;47.25;;;;;0.32;100.00;100367.03;6253178;22;47722;-86
2022/12/16 01:54:43;;;;;;;;;55.50;46.25;;;;;0.18;100.00;100344.53;6253677;22;45435;-85
2022/12/16 01:57:14;;;;;;;;;53.50;45.75;;;;;0.25;100.00;100378.03;6255076;22;45338;-86
2022/12/16 01:59:45;;;;;;;;;56.00;46.00;;;;;0.14;100.00;100367.03;6255259;22;45400;-85
2022/12/16 02:02:12;;;;;;;;;58.50;46.25;;;;;0.27;100.00;100393.81;6253832;22;45966;-85
2022/12/16 02:05:19;;;;;;;;;58.75;47.50;;;;;0.30;100.00;100404.41;6254285;22;44808;-85
2022/12/16 02:07:24;;;;;;;;;51.50;48.00;;;;;0.28;100.00;100409.53;6256352;22;44838;-85
2022/12/16 02:09:49;;;;;;;;;56.75;48.50;;;;;0.17;100.00;100395.06;6257454;22;45226;-86
2022/12/16 02:12:22;;;;;;;;;53.50;46.00;;;;;0.26;100.00;100412.91;6254759;22;45404;-84
2022/12/16 02:15:09;;;;;;;;;61.25;48.00;;;;;0.22;100.00;100416.19;6256138;22;45730;-84
2022/12/16 02:17:40;;;;;;;;;56.50;46.25;;;;;0.18;100.00;100413.44;6254151;22;45384;-84
2022/12/16 02:20:38;;;;;;;;;55.25;46.00;;;;;0.15;100.00;100405.44;6277716;22;45356;-85
2022/12/16 02:23:28;;;;;;;;;48.50;42.75;;;;;0.23;100.00;100405.81;6277050;22;45624;-84
2022/12/16 02:26:19;;;;;;;;;53.00;45.50;;;;;0.27;100.00;100406.88;6252506;22;45252;-85
2022/12/16 02:29:17;;;;;;;;;55.00;49.50;;;;;0.26;100.00;100411.19;6278409;22;45734;-85
2022/12/16 02:31:58;;;;;;;;;50.50;46.00;;;;;0.27;100.00;100413.00;6254692;22;44968;-85
2022/12/16 02:34:34;;;;;;;;;61.75;52.25;;;;;0.28;100.00;100406.94;6247294;22;46619;-84
2022/12/16 02:37:19;;;;;;;;;60.00;48.25;;;;;0.24;100.00;100401.47;6250528;22;44825;-84
2022/12/16 02:39:59;;;;;;;;;61.50;49.75;;;;;0.31;100.00;100408.81;6254758;22;45372;-85
2022/12/16 02:42:32;;;;;;;;;56.75;49.00;;;;;0.30;100.00;100410.53;6254275;22;45395;-85
2022/12/16 02:45:03;;;;;;;;;58.75;48.50;;;;;0.31;100.00;100406.22;6252368;22;45632;-85
2022/12/16 02:47:29;;;;;;;;;57.00;46.75;;;;;0.32;100.00;100410.59;6253771;22;45466;-85
2022/12/16 02:49:55;;;;;;;;;56.50;49.25;;;;;0.30;100.00;100417.47;6253217;22;45789;-85
2022/12/16 02:52:24;;;;;;;;;65.50;52.00;;;;;0.34;100.00;100427.28;6252603;22;45460;-85
2022/12/16 02:55:00;;;;;;;;;60.50;46.50;;;;;0.28;100.00;100408.66;6279356;22;45665;-83
2022/12/16 02:57:33;;;;;;;;;57.00;48.75;;;;;0.32;100.00;100421.06;6254054;22;44693;-84
2022/12/16 03:00:07;;;;;;;;;53.75;47.25;;;;;0.19;100.00;100407.38;6257419;22;44760;-83
2022/12/16 03:02:43;;;;;;;;;57.75;44.50;;;;;0.19;100.00;100414.34;6281558;22;45254;-84
2022/12/16 03:05:19;;;;;;;;;57.00;50.00;;;;;0.26;100.00;100423.38;6254923;22;45384;-83
2022/12/16 03:07:48;;;;;;;;;54.50;45.75;;;;;0.24;100.00;100427.63;6252590;22;45294;-84
2022/12/16 03:10:19;;;;;;;;;59.00;49.25;;;;;0.23;100.00;100425.84;6254680;22;45385;-84
2022/12/16 03:12:45;;;;;;;;;59.50;50.50;;;;;0.15;100.00;100426.34;6256610;22;45179;-84
2022/12/16 03:15:18;;;;;;;;;62.00;52.00;;;;;0.21;100.00;100427.50;6255961;22;47025;-85
2022/12/16 03:17:47;;;;;;;;;53.50;46.25;;;;;0.21;100.00;100427.50;6256005;22;45163;-85
2022/12/16 03:20:48;;;;;;;;;47.75;44.00;;;;;0.18;100.00;100422.97;6255424;22;45391;-84
2022/12/16 03:23:18;;;;;;;;;56.50;47.75;;;;;0.23;100.00;100431.97;6229630;22;44829;-85
2022/12/16 03:25:48;;;;;;;;;51.25;43.50;;;;;0.18;100.00;100421.28;6255692;22;45660;-85
2022/12/16 03:28:51;;;;;;;;;59.75;47.25;;;;;0.21;100.00;100427.50;6253634;22;45270;-85
2022/12/16 03:31:40;;;;;;;;;58.25;50.50;;;;;0.17;100.00;100424.72;6230416;22;45390;-85
2022/12/16 03:34:24;;;;;;;;;63.00;51.25;;;;;0.29;100.00;100447.09;6253545;22;45301;-85
2022/12/16 03:36:55;;;;;;;;;54.50;46.50;;;;;0.28;100.00;100446.16;6256825;22;45028;-84
2022/12/16 03:39:22;;;;;;;;;60.75;48.75;;;;;0.27;100.00;100449.63;6255289;22;45506;-85
2022/12/16 03:41:53;;;;;;;;;60.75;50.25;;;;;0.28;100.00;100447.88;6253643;22;45311;-85
2022/12/16 03:47:47;;;;;;;;;62.25;50.50;;;;;0.28;100.00;100460.97;6254909;22;45334;-84
2022/12/16 03:50:12;;;;;;;;;55.00;45.75;;;;;0.23;100.00;100446.78;6253106;22;45262;-84
2022/12/16 03:52:38;;;;;;;;;55.00;46.25;;;;;0.24;100.00;100451.16;6254035;22;45352;-85
2022/12/16 03:55:06;;;;;;;;;58.25;49.25;;;;;0.17;100.00;100442.13;6255854;22;45273;-84
2022/12/16 03:57:31;;;;;;;;;43.00;39.50;;;;;0.16;100.00;100429.84;6256398;22;47922;-85
2022/12/16 03:59:57;;;;;;;;;52.00;46.25;;;;;0.28;100.00;100453.13;6258007;22;45414;-85
2022/12/16 04:02:23;;;;;;;;;50.75;46.25;;;;;0.32;100.00;100462.91;6251609;22;45430;-85
2022/12/16 04:04:48;;;;;;;;;44.00;42.25;;;;;0.31;100.00;100446.34;6277750;22;45343;-85
2022/12/16 04:07:19;;;;;;;;;43.75;41.25;;;;;0.34;100.00;100461.28;6250941;22;46789;-85
2022/12/16 04:09:46;;;;;;;;;50.00;43.50;;;;;0.31;100.00;100448.06;6279222;22;45273;-84
2022/12/16 04:29:24;;;;;;;;;39.75;39.00;;;;;0.40;100.00;100500.81;6164013;23;45315;-86
2022/12/16 04:31:51;;;;;;;;;48.50;41.25;;;;;0.41;100.00;100492.16;6163397;23;45422;-85
2022/12/16 04:34:29;;;;;;;;;43.25;39.00;;;;;0.46;100.00;100495.00;6155104;23;44745;-85
